createdAt,value
2023-10-07T00:01:28.922Z,16.25
2023-10-07T00:04:00.146Z,16.24
2023-10-07T00:06:29.499Z,16.25
2023-10-07T00:08:59.706Z,16.25
2023-10-07T00:11:29.003Z,16.20
2023-10-07T00:13:57.168Z,16.20
2023-10-07T00:16:25.720Z,16.17
2023-10-07T00:18:55.595Z,16.17
2023-10-07T00:21:44.431Z,16.23
2023-10-07T00:24:17.371Z,16.18
2023-10-07T00:26:48.879Z,16.27
2023-10-07T00:29:18.245Z,16.28
2023-10-07T00:31:47.517Z,16.37
2023-10-07T00:34:16.596Z,16.34
2023-10-07T00:36:45.981Z,16.40
2023-10-07T00:39:22.434Z,16.43
2023-10-07T00:41:52.245Z,16.43
2023-10-07T00:44:31.492Z,16.49
2023-10-07T00:47:03.432Z,16.54
2023-10-07T00:49:39.761Z,16.57
2023-10-07T00:52:12.882Z,16.65
2023-10-07T00:54:50.711Z,16.62
2023-10-07T00:57:36.100Z,16.70
2023-10-07T01:00:24.515Z,16.72
2023-10-07T01:02:53.205Z,16.72
2023-10-07T01:05:27.538Z,16.75
2023-10-07T01:07:59.464Z,16.81
2023-10-07T01:10:28.980Z,16.77
2023-10-07T01:13:02.848Z,16.88
2023-10-07T01:15:31.340Z,16.90
2023-10-07T01:18:05.400Z,16.91
2023-10-07T01:20:50.841Z,16.93
2023-10-07T01:23:34.214Z,16.95
2023-10-07T01:26:02.135Z,17.00
2023-10-07T01:28:29.494Z,16.93
2023-10-07T01:31:14.176Z,16.96
2023-10-07T01:33:48.096Z,16.89
2023-10-07T01:36:15.329Z,16.91
2023-10-07T01:38:53.003Z,16.92
2023-10-07T01:41:21.277Z,16.94
2023-10-07T01:44:01.753Z,16.95
2023-10-07T01:46:31.387Z,16.89
2023-10-07T01:49:00.471Z,16.91
2023-10-07T01:51:28.781Z,16.96
2023-10-07T01:53:58.153Z,16.93
2023-10-07T01:56:27.990Z,16.97
2023-10-07T01:59:15.563Z,17.03
2023-10-07T02:01:51.895Z,17.04
2023-10-07T02:04:28.108Z,17.10
2023-10-07T02:06:55.820Z,17.10
2023-10-07T02:09:27.633Z,17.11
2023-10-07T02:11:56.669Z,17.14
2023-10-07T02:14:28.920Z,17.14
2023-10-07T02:17:00.999Z,17.10
2023-10-07T02:19:30.348Z,17.14
2023-10-07T02:22:00.971Z,17.16
2023-10-07T02:24:33.180Z,17.22
2023-10-07T02:27:02.649Z,17.22
2023-10-07T02:29:29.923Z,17.24
2023-10-07T02:32:18.828Z,17.23
2023-10-07T02:34:53.279Z,17.24
2023-10-07T02:37:22.805Z,17.28
2023-10-07T02:39:56.282Z,17.23
2023-10-07T02:42:25.694Z,17.29
2023-10-07T02:45:02.592Z,17.35
2023-10-07T02:47:33.936Z,17.36
2023-10-07T02:50:04.350Z,17.36
2023-10-07T02:52:38.788Z,17.43
2023-10-07T02:55:20.667Z,17.39
2023-10-07T02:57:48.339Z,17.41
2023-10-07T03:00:37.179Z,17.42
2023-10-07T03:03:12.296Z,17.37
2023-10-07T03:05:45.272Z,17.33
2023-10-07T03:08:20.755Z,17.39
2023-10-07T03:11:05.535Z,17.43
2023-10-07T03:13:38.587Z,17.43
2023-10-07T03:16:24.067Z,17.46
2023-10-07T03:19:07.505Z,17.41
2023-10-07T03:21:38.001Z,17.44
2023-10-07T03:24:11.918Z,17.48
2023-10-07T03:26:42.235Z,17.47
2023-10-07T03:29:09.479Z,17.46
2023-10-07T03:31:37.036Z,17.44
2023-10-07T03:34:09.267Z,17.43
2023-10-07T03:36:42.988Z,17.36
2023-10-07T03:39:11.589Z,17.39
2023-10-07T03:41:57.103Z,17.36
2023-10-07T03:44:26.482Z,17.38
2023-10-07T03:46:58.893Z,17.32
2023-10-07T03:49:35.003Z,17.31
2023-10-07T03:52:09.141Z,17.34
2023-10-07T03:54:36.742Z,17.35
2023-10-07T03:57:08.375Z,17.36
2023-10-07T03:59:38.406Z,17.28
2023-10-07T04:02:29.953Z,17.27
2023-10-07T04:05:02.259Z,17.16
2023-10-07T04:07:33.353Z,17.14
2023-10-07T04:10:14.641Z,17.23
2023-10-07T04:12:48.037Z,17.16
2023-10-07T04:15:18.728Z,17.09
2023-10-07T04:17:46.488Z,17.05
2023-10-07T04:20:20.123Z,17.10
2023-10-07T04:22:59.478Z,17.02
2023-10-07T04:25:27.126Z,17.00
2023-10-07T04:27:55.755Z,16.99
2023-10-07T04:30:26.990Z,17.00
2023-10-07T04:33:02.424Z,16.90
2023-10-07T04:35:32.469Z,16.96
2023-10-07T04:38:18.509Z,16.99
2023-10-07T04:41:04.364Z,16.93
2023-10-07T04:43:48.939Z,17.05
2023-10-07T04:46:26.080Z,17.05
2023-10-07T04:48:57.741Z,17.03
2023-10-07T04:51:45.674Z,17.03
2023-10-07T04:54:13.816Z,17.05
2023-10-07T04:56:41.227Z,17.07
2023-10-07T04:59:12.032Z,17.06
2023-10-07T05:01:43.529Z,17.11
2023-10-07T05:04:12.141Z,17.08
2023-10-07T05:06:39.973Z,17.10
2023-10-07T05:09:11.033Z,17.08
2023-10-07T05:11:41.754Z,17.06
2023-10-07T05:14:17.201Z,17.02
2023-10-07T05:16:48.017Z,17.02
2023-10-07T05:19:21.293Z,16.99
2023-10-07T05:22:00.629Z,16.99
2023-10-07T05:24:31.356Z,16.97
2023-10-07T05:27:01.848Z,16.97
2023-10-07T05:29:30.736Z,16.98
2023-10-07T05:31:58.744Z,16.96
2023-10-07T05:34:30.608Z,17.00
2023-10-07T05:37:03.969Z,16.96
2023-10-07T05:39:33.986Z,16.94
2023-10-07T05:42:04.671Z,16.91
2023-10-07T05:45:06.346Z,16.87
2023-10-07T05:47:34.199Z,16.90
2023-10-07T05:50:02.231Z,16.87
2023-10-07T05:52:33.626Z,16.86
2023-10-07T05:55:01.180Z,16.79
2023-10-07T05:57:28.727Z,16.76
2023-10-07T05:59:55.910Z,16.73
2023-10-07T06:02:24.542Z,16.70
2023-10-07T06:04:53.036Z,16.73
2023-10-07T06:07:23.013Z,16.75
2023-10-07T06:09:50.258Z,16.77
2023-10-07T06:12:17.343Z,16.87
2023-10-07T06:14:44.275Z,16.90
2023-10-07T06:17:13.097Z,16.90
2023-10-07T06:19:45.227Z,16.90
2023-10-07T06:22:13.394Z,16.90
2023-10-07T06:24:41.973Z,16.92
2023-10-07T06:27:13.060Z,16.92
2023-10-07T06:29:44.710Z,16.90
2023-10-07T06:32:34.840Z,16.98
2023-10-07T06:35:03.619Z,16.95
2023-10-07T06:37:31.230Z,16.99
2023-10-07T06:40:02.336Z,17.11
2023-10-07T06:42:29.780Z,17.13
2023-10-07T06:44:57.340Z,17.21
2023-10-07T06:47:25.454Z,17.22
2023-10-07T06:49:53.607Z,17.20
2023-10-07T06:52:23.550Z,17.33
2023-10-07T06:55:05.490Z,17.35
2023-10-07T06:57:36.205Z,17.43
2023-10-07T07:00:10.456Z,17.41
2023-10-07T07:02:38.130Z,17.45
2023-10-07T07:05:14.977Z,17.47
2023-10-07T07:07:44.610Z,17.51
2023-10-07T07:10:17.859Z,17.62
2023-10-07T07:12:46.047Z,17.79
2023-10-07T07:15:27.639Z,18.07
2023-10-07T07:18:09.671Z,18.13
2023-10-07T07:20:55.371Z,18.41
2023-10-07T07:23:29.111Z,19.00
2023-10-07T07:26:05.204Z,19.17
2023-10-07T07:28:32.593Z,19.31
2023-10-07T07:31:00.059Z,19.75
2023-10-07T07:33:36.245Z,19.84
2023-10-07T07:36:22.365Z,19.95
2023-10-07T07:38:54.127Z,20.08
2023-10-07T07:41:39.093Z,20.22
2023-10-07T07:44:13.634Z,20.34
2023-10-07T07:46:56.252Z,19.81
2023-10-07T07:49:29.377Z,19.51
2023-10-07T07:51:56.763Z,19.28
2023-10-07T07:54:26.361Z,19.57
2023-10-07T07:56:56.155Z,19.90
2023-10-07T07:59:23.884Z,20.26
2023-10-07T08:02:12.915Z,20.46
2023-10-07T08:04:40.696Z,20.52
2023-10-07T08:07:19.023Z,20.41
2023-10-07T08:09:51.657Z,20.62
2023-10-07T08:12:20.694Z,20.39
2023-10-07T08:14:48.467Z,20.58
2023-10-07T08:17:21.079Z,20.37
2023-10-07T08:19:51.677Z,20.43
2023-10-07T08:22:22.138Z,20.64
2023-10-07T08:24:51.041Z,20.83
2023-10-07T08:27:37.878Z,20.74
2023-10-07T08:30:10.706Z,20.81
2023-10-07T08:32:42.896Z,20.86
2023-10-07T08:35:17.949Z,20.73
2023-10-07T08:37:49.271Z,20.92
2023-10-07T08:40:41.743Z,20.86
2023-10-07T08:43:19.588Z,20.73
2023-10-07T08:45:49.013Z,20.82
2023-10-07T08:48:16.902Z,21.03
2023-10-07T08:50:56.666Z,21.20
2023-10-07T08:53:27.907Z,21.35
2023-10-07T08:56:01.886Z,21.32
2023-10-07T08:58:32.464Z,21.43
2023-10-07T09:01:00.629Z,21.48
2023-10-07T09:03:31.030Z,21.51
2023-10-07T09:06:00.734Z,21.34
2023-10-07T09:08:28.151Z,21.44
2023-10-07T09:10:57.194Z,21.44
2023-10-07T09:13:32.627Z,21.44
2023-10-07T09:16:00.953Z,21.64
2023-10-07T09:18:39.235Z,21.52
2023-10-07T09:21:10.558Z,21.64
2023-10-07T09:23:49.109Z,21.75
2023-10-07T09:26:23.934Z,21.82
2023-10-07T09:29:07.941Z,21.75
2023-10-07T09:31:37.379Z,21.75
2023-10-07T09:34:10.967Z,21.60
2023-10-07T09:36:41.647Z,21.62
2023-10-07T09:39:35.290Z,21.74
2023-10-07T09:42:27.161Z,21.83
2023-10-07T09:45:25.135Z,22.00
2023-10-07T09:47:53.201Z,21.85
2023-10-07T09:50:20.491Z,21.92
2023-10-07T09:52:55.756Z,22.27
2023-10-07T09:55:49.351Z,21.84
2023-10-07T09:58:42.837Z,22.13
2023-10-07T10:01:40.113Z,22.12
2023-10-07T10:04:33.777Z,22.06
2023-10-07T10:07:27.451Z,22.40
2023-10-07T10:10:08.550Z,22.29
2023-10-07T10:13:03.252Z,22.40
2023-10-07T10:15:36.184Z,22.61
2023-10-07T10:18:07.236Z,22.45
2023-10-07T10:20:45.616Z,22.66
2023-10-07T10:23:23.433Z,22.68
2023-10-07T10:25:53.772Z,22.61
2023-10-07T10:28:34.886Z,22.75
2023-10-07T10:31:08.316Z,22.54
2023-10-07T10:33:36.695Z,22.44
2023-10-07T10:36:09.146Z,22.77
2023-10-07T10:38:38.530Z,22.75
2023-10-07T10:41:06.088Z,22.96
2023-10-07T10:43:33.666Z,22.88
2023-10-07T10:46:07.948Z,22.89
2023-10-07T10:48:36.266Z,22.92
2023-10-07T10:51:10.629Z,23.02
2023-10-07T10:53:42.471Z,22.94
2023-10-07T10:56:10.911Z,23.02
2023-10-07T10:58:38.355Z,22.97
2023-10-07T11:01:06.899Z,23.03
2023-10-07T11:03:35.571Z,23.08
2023-10-07T11:06:07.461Z,23.29
2023-10-07T11:08:34.954Z,23.50
2023-10-07T11:11:03.318Z,23.45
2023-10-07T11:13:33.513Z,23.29
2023-10-07T11:16:12.457Z,23.52
2023-10-07T11:18:44.387Z,23.71
2023-10-07T11:21:12.996Z,23.82
2023-10-07T11:23:46.135Z,23.73
2023-10-07T11:26:13.399Z,23.72
2023-10-07T11:28:42.537Z,23.93
2023-10-07T11:31:09.773Z,23.87
2023-10-07T11:33:37.010Z,23.83
2023-10-07T11:36:07.537Z,23.74
2023-10-07T11:38:34.647Z,23.81
2023-10-07T11:41:01.993Z,23.94
2023-10-07T11:43:30.778Z,24.15
2023-10-07T11:45:58.169Z,24.04
2023-10-07T11:48:26.034Z,24.20
2023-10-07T11:50:53.083Z,24.26
2023-10-07T11:53:21.654Z,24.37
2023-10-07T11:55:48.976Z,24.40
2023-10-07T11:58:17.215Z,24.57
2023-10-07T12:00:44.485Z,24.45
2023-10-07T12:03:11.985Z,24.53
2023-10-07T12:05:45.039Z,24.68
2023-10-07T12:08:15.369Z,24.85
2023-10-07T12:10:44.323Z,24.94
2023-10-07T12:13:16.330Z,25.01
2023-10-07T12:18:20.618Z,24.99
2023-10-07T12:20:47.740Z,25.18
2023-10-07T12:23:14.756Z,25.29
2023-10-07T12:25:43.359Z,25.17
2023-10-07T12:28:10.567Z,25.06
2023-10-07T12:30:38.713Z,25.28
2023-10-07T12:33:08.940Z,25.03
2023-10-07T12:35:39.910Z,25.13
2023-10-07T12:38:07.496Z,25.25
2023-10-07T12:40:34.503Z,25.17
2023-10-07T12:43:03.022Z,25.58
2023-10-07T12:45:32.194Z,25.54
2023-10-07T12:48:00.894Z,25.57
2023-10-07T12:50:31.572Z,25.52
2023-10-07T12:52:59.372Z,25.48
2023-10-07T12:55:33.666Z,25.63
2023-10-07T12:58:10.420Z,25.75
2023-10-07T13:00:37.970Z,25.78
2023-10-07T13:03:08.565Z,25.69
2023-10-07T13:05:39.563Z,25.57
2023-10-07T13:08:14.374Z,25.57
2023-10-07T13:10:41.835Z,25.64
2023-10-07T13:13:14.898Z,25.87
2023-10-07T13:15:46.961Z,25.59
2023-10-07T13:18:15.001Z,25.61
2023-10-07T13:20:42.228Z,25.55
2023-10-07T13:23:13.128Z,25.62
2023-10-07T13:25:40.787Z,25.47
2023-10-07T13:28:09.128Z,25.52
2023-10-07T13:30:38.610Z,25.56
2023-10-07T13:33:08.723Z,25.77
2023-10-07T13:35:35.922Z,25.68
2023-10-07T13:38:03.177Z,25.59
2023-10-07T13:40:31.961Z,25.44
2023-10-07T13:43:00.643Z,25.54
2023-10-07T13:45:32.384Z,25.47
2023-10-07T13:48:04.851Z,25.52
2023-10-07T13:50:32.159Z,25.36
2023-10-07T13:52:59.211Z,25.35
2023-10-07T13:55:42.963Z,25.22
2023-10-07T13:58:10.500Z,24.92
2023-10-07T14:00:37.749Z,24.92
2023-10-07T14:03:10.022Z,24.88
2023-10-07T14:05:42.629Z,24.94
2023-10-07T14:08:17.478Z,25.18
2023-10-07T14:10:52.009Z,25.08
2023-10-07T14:13:24.748Z,25.09
2023-10-07T14:15:53.805Z,25.11
2023-10-07T14:18:25.659Z,25.12
2023-10-07T14:20:53.766Z,25.22
2023-10-07T14:23:21.235Z,25.20
2023-10-07T14:25:50.678Z,25.18
2023-10-07T14:28:21.032Z,25.30
2023-10-07T14:30:48.714Z,25.34
2023-10-07T14:33:15.976Z,25.36
2023-10-07T14:35:45.748Z,25.37
2023-10-07T14:38:13.262Z,25.26
2023-10-07T14:40:42.824Z,25.41
2023-10-07T14:43:14.010Z,25.35
2023-10-07T14:45:48.527Z,25.24
2023-10-07T14:48:15.720Z,25.09
2023-10-07T14:50:44.439Z,25.18
2023-10-07T14:53:15.116Z,25.05
2023-10-07T14:55:45.532Z,25.02
2023-10-07T14:58:14.377Z,25.15
2023-10-07T15:00:44.384Z,24.92
2023-10-07T15:03:12.868Z,25.13
2023-10-07T15:05:46.665Z,24.99
2023-10-07T15:08:18.314Z,25.08
2023-10-07T15:10:47.226Z,25.15
2023-10-07T15:13:14.989Z,25.20
2023-10-07T15:15:43.599Z,25.06
2023-10-07T15:18:13.776Z,24.97
2023-10-07T15:20:40.903Z,24.88
2023-10-07T15:23:11.103Z,24.97
2023-10-07T15:25:49.875Z,24.89
2023-10-07T15:28:17.139Z,24.98
2023-10-07T15:30:49.974Z,25.03
2023-10-07T15:33:18.429Z,24.87
2023-10-07T15:35:45.848Z,24.71
2023-10-07T15:38:13.420Z,24.64
2023-10-07T15:40:42.146Z,24.69
2023-10-07T15:43:09.321Z,24.67
2023-10-07T15:45:41.028Z,24.46
2023-10-07T15:48:11.040Z,24.27
2023-10-07T15:50:40.388Z,24.31
2023-10-07T15:53:08.948Z,24.37
2023-10-07T15:55:36.568Z,24.42
2023-10-07T15:58:05.304Z,24.34
2023-10-07T16:00:35.605Z,24.31
2023-10-07T16:03:03.009Z,24.25
2023-10-07T16:05:31.352Z,24.26
2023-10-07T16:07:59.802Z,24.19
2023-10-07T16:10:27.030Z,24.12
2023-10-07T16:12:54.069Z,23.95
2023-10-07T16:15:22.863Z,23.75
2023-10-07T16:17:50.791Z,23.63
2023-10-07T16:20:19.906Z,23.76
2023-10-07T16:22:47.754Z,23.74
2023-10-07T16:25:16.193Z,23.62
2023-10-07T16:27:43.372Z,23.61
2023-10-07T16:30:11.950Z,23.61
2023-10-07T16:32:43.112Z,23.52
2023-10-07T16:35:10.798Z,23.38
2023-10-07T16:37:41.050Z,23.31
2023-10-07T16:40:09.630Z,23.40
2023-10-07T16:42:37.051Z,23.25
2023-10-07T16:45:07.168Z,23.13
2023-10-07T16:47:34.516Z,23.09
2023-10-07T16:50:04.769Z,22.87
2023-10-07T16:52:31.867Z,22.83
2023-10-07T16:55:02.073Z,22.68
2023-10-07T16:57:29.186Z,22.79
2023-10-07T16:59:56.335Z,22.57
2023-10-07T17:02:23.564Z,22.66
2023-10-07T17:04:51.260Z,22.60
2023-10-07T17:07:20.212Z,22.66
2023-10-07T17:09:47.457Z,22.49
2023-10-07T17:12:15.385Z,22.30
2023-10-07T17:14:42.492Z,22.22
2023-10-07T17:17:10.196Z,22.21
2023-10-07T17:19:38.296Z,22.21
2023-10-07T17:22:05.856Z,22.13
2023-10-07T17:24:34.311Z,22.10
2023-10-07T17:27:01.869Z,22.00
2023-10-07T17:29:29.035Z,21.91
2023-10-07T17:31:56.084Z,21.90
2023-10-07T17:34:26.496Z,21.90
2023-10-07T17:36:54.229Z,21.84
2023-10-07T17:39:21.367Z,21.72
2023-10-07T17:41:50.765Z,21.57
2023-10-07T17:44:18.357Z,21.48
2023-10-07T17:46:45.876Z,21.41
2023-10-07T17:49:13.366Z,21.31
2023-10-07T17:51:40.936Z,21.40
2023-10-07T17:54:08.089Z,21.28
2023-10-07T17:56:35.911Z,21.29
2023-10-07T17:59:05.268Z,21.16
2023-10-07T18:01:32.462Z,21.05
2023-10-07T18:03:59.813Z,21.05
2023-10-07T18:06:28.191Z,21.02
2023-10-07T18:08:57.140Z,20.98
2023-10-07T18:11:24.371Z,20.87
2023-10-07T18:13:51.480Z,20.74
2023-10-07T18:16:19.961Z,20.75
2023-10-07T18:18:47.083Z,20.87
2023-10-07T18:21:14.173Z,20.86
2023-10-07T18:23:41.637Z,20.73
2023-10-07T18:26:09.484Z,20.72
2023-10-07T18:28:36.536Z,20.69
2023-10-07T18:31:03.592Z,20.59
2023-10-07T18:33:33.117Z,20.47
2023-10-07T18:36:00.329Z,20.25
2023-10-07T18:38:27.470Z,20.20
2023-10-07T18:40:54.751Z,20.14
2023-10-07T18:43:21.809Z,20.12
2023-10-07T18:45:53.539Z,20.14
2023-10-07T18:48:20.859Z,20.11
2023-10-07T18:50:49.539Z,20.07
2023-10-07T18:53:16.685Z,19.96
2023-10-07T18:55:43.724Z,19.94
2023-10-07T18:58:13.819Z,19.89
2023-10-07T19:00:40.866Z,19.87
2023-10-07T19:03:08.364Z,19.74
2023-10-07T19:05:35.826Z,19.77
2023-10-07T19:08:04.933Z,19.92
2023-10-07T19:10:32.085Z,19.88
2023-10-07T19:13:00.314Z,19.79
2023-10-07T19:15:28.752Z,19.68
2023-10-07T19:17:56.583Z,19.75
2023-10-07T19:20:24.584Z,19.78
2023-10-07T19:22:52.059Z,19.79
2023-10-07T19:25:20.848Z,19.70
2023-10-07T19:27:48.266Z,19.70
2023-10-07T19:30:15.426Z,19.57
2023-10-07T19:32:43.632Z,19.50
2023-10-07T19:35:11.506Z,19.56
2023-10-07T19:37:38.618Z,19.50
2023-10-07T19:40:07.803Z,19.48
2023-10-07T19:42:36.208Z,19.43
2023-10-07T19:45:03.524Z,19.33
2023-10-07T19:47:30.722Z,19.25
2023-10-07T19:49:57.855Z,19.13
2023-10-07T19:52:24.951Z,19.08
2023-10-07T19:54:53.404Z,18.96
2023-10-07T19:57:21.305Z,19.01
2023-10-07T19:59:54.274Z,18.99
2023-10-07T20:02:21.656Z,18.98
2023-10-07T20:04:49.130Z,18.98
2023-10-07T20:07:16.320Z,18.96
2023-10-07T20:09:43.847Z,18.99
2023-10-07T20:12:10.981Z,18.92
2023-10-07T20:14:38.119Z,18.89
2023-10-07T20:17:06.661Z,18.84
2023-10-07T20:19:33.812Z,18.81
2023-10-07T20:22:00.910Z,18.76
2023-10-07T20:24:28.044Z,18.72
2023-10-07T20:26:55.399Z,18.65
2023-10-07T20:29:22.689Z,18.59
2023-10-07T20:31:49.834Z,18.53
2023-10-07T20:34:18.527Z,18.47
2023-10-07T20:36:45.674Z,18.32
2023-10-07T20:39:13.081Z,18.38
2023-10-07T20:41:41.798Z,18.32
2023-10-07T20:44:09.272Z,18.27
2023-10-07T20:46:36.710Z,18.21
2023-10-07T20:49:04.316Z,18.20
2023-10-07T20:51:32.765Z,18.13
2023-10-07T20:54:01.060Z,18.12
2023-10-07T20:56:28.368Z,18.15
2023-10-07T20:58:55.499Z,18.19
2023-10-07T21:01:23.262Z,18.20
2023-10-07T21:03:53.123Z,18.24
2023-10-07T21:06:21.675Z,18.15
2023-10-07T21:08:51.588Z,18.13
2023-10-07T21:11:24.392Z,18.06
2023-10-07T21:13:52.332Z,18.04
2023-10-07T21:16:20.041Z,17.98
2023-10-07T21:18:47.185Z,17.95
2023-10-07T21:21:15.420Z,17.82
2023-10-07T21:23:44.106Z,17.96
2023-10-07T21:26:17.812Z,17.93
2023-10-07T21:28:45.417Z,17.86
2023-10-07T21:31:12.657Z,17.89
2023-10-07T21:33:39.780Z,17.91
2023-10-07T21:36:07.955Z,17.82
2023-10-07T21:38:36.117Z,17.79
2023-10-07T21:41:03.305Z,17.81
2023-10-07T21:43:31.987Z,17.82
2023-10-07T21:46:02.231Z,17.80
2023-10-07T21:48:29.423Z,17.78
2023-10-07T21:51:05.430Z,17.84
2023-10-07T21:53:32.923Z,17.78
2023-10-07T21:56:00.051Z,17.76
2023-10-07T21:58:27.027Z,17.75
2023-10-07T22:00:58.666Z,17.80
2023-10-07T22:03:27.158Z,17.71
2023-10-07T22:05:54.886Z,17.75
2023-10-07T22:08:22.265Z,17.73
2023-10-07T22:10:49.318Z,17.71
2023-10-07T22:13:20.527Z,17.73
2023-10-07T22:15:55.720Z,17.73
2023-10-07T22:18:26.341Z,17.67
2023-10-07T22:20:53.791Z,17.68
2023-10-07T22:23:22.900Z,17.55
2023-10-07T22:25:54.322Z,17.54
2023-10-07T22:28:22.314Z,17.55
2023-10-07T22:30:56.813Z,17.53
2023-10-07T22:33:28.179Z,17.47
2023-10-07T22:35:55.163Z,17.38
2023-10-07T22:38:23.087Z,17.38
2023-10-07T22:40:53.121Z,17.37
2023-10-07T22:43:21.844Z,17.37
2023-10-07T22:45:50.204Z,17.40
2023-10-07T22:48:22.329Z,17.35
2023-10-07T22:50:56.642Z,17.32
2023-10-07T22:53:30.615Z,17.22
2023-10-07T22:56:06.084Z,17.26
2023-10-07T22:58:39.748Z,17.25
2023-10-07T23:01:17.046Z,17.22
2023-10-07T23:03:50.948Z,17.17
2023-10-07T23:06:32.047Z,17.13
2023-10-07T23:08:59.108Z,17.15
2023-10-07T23:11:28.017Z,17.09
2023-10-07T23:13:56.796Z,17.05
2023-10-07T23:16:30.029Z,17.05
2023-10-07T23:18:59.844Z,16.95
2023-10-07T23:21:47.426Z,16.97
2023-10-07T23:24:35.834Z,16.92
2023-10-07T23:27:05.289Z,16.86
2023-10-07T23:29:36.762Z,16.93
2023-10-07T23:32:04.749Z,16.87
2023-10-07T23:34:37.441Z,16.82
2023-10-07T23:37:05.912Z,16.94
2023-10-07T23:39:38.737Z,16.96
2023-10-07T23:42:05.930Z,17.00
2023-10-07T23:44:33.844Z,17.01
2023-10-07T23:47:01.689Z,16.98
2023-10-07T23:49:32.508Z,16.95
2023-10-07T23:51:59.577Z,16.96
2023-10-07T23:54:29.519Z,16.91
2023-10-07T23:57:01.991Z,16.87
2023-10-07T23:59:30.049Z,16.86
